sensor_id;sensor_type;location;lat;lon;timestamp;P1;durP1;ratioP1;P2;durP2;ratioP2
20956;SDS011;10637;47.970;7.830;2023-03-12T00:00:27;12.77;;;6.40;;
20956;SDS011;10637;47.970;7.830;2023-03-12T00:05:29;15.83;;;7.67;;
20956;SDS011;10637;47.970;7.830;2023-03-12T00:10:31;14.47;;;7.10;;
20956;SDS011;10637;47.970;7.830;2023-03-12T00:15:36;13.20;;;7.03;;
20956;SDS011;10637;47.970;7.830;2023-03-12T00:20:39;12.70;;;6.80;;
20956;SDS011;10637;47.970;7.830;2023-03-12T00:25:41;14.10;;;6.70;;
20956;SDS011;10637;47.970;7.830;2023-03-12T00:30:46;15.20;;;6.90;;
20956;SDS011;10637;47.970;7.830;2023-03-12T00:35:48;14.93;;;6.57;;
20956;SDS011;10637;47.970;7.830;2023-03-12T00:40:50;13.37;;;6.53;;
20956;SDS011;10637;47.970;7.830;2023-03-12T00:45:52;13.40;;;7.10;;
20956;SDS011;10637;47.970;7.830;2023-03-12T00:50:54;14.70;;;7.60;;
20956;SDS011;10637;47.970;7.830;2023-03-12T00:55:55;16.00;;;7.30;;
20956;SDS011;10637;47.970;7.830;2023-03-12T01:00:57;14.50;;;7.53;;
20956;SDS011;10637;47.970;7.830;2023-03-12T01:05:59;15.37;;;7.00;;
20956;SDS011;10637;47.970;7.830;2023-03-12T01:11:01;14.77;;;6.87;;
20956;SDS011;10637;47.970;7.830;2023-03-12T01:16:03;14.17;;;6.23;;
20956;SDS011;10637;47.970;7.830;2023-03-12T01:21:05;14.70;;;7.13;;
20956;SDS011;10637;47.970;7.830;2023-03-12T01:26:07;13.43;;;6.70;;
20956;SDS011;10637;47.970;7.830;2023-03-12T01:31:09;13.00;;;6.87;;
20956;SDS011;10637;47.970;7.830;2023-03-12T01:36:26;15.50;;;7.33;;
20956;SDS011;10637;47.970;7.830;2023-03-12T01:41:29;12.83;;;6.47;;
20956;SDS011;10637;47.970;7.830;2023-03-12T01:46:36;16.33;;;6.63;;
20956;SDS011;10637;47.970;7.830;2023-03-12T01:51:46;15.83;;;7.03;;
20956;SDS011;10637;47.970;7.830;2023-03-12T01:56:51;13.57;;;6.67;;
20956;SDS011;10637;47.970;7.830;2023-03-12T02:01:54;11.43;;;5.80;;
20956;SDS011;10637;47.970;7.830;2023-03-12T02:06:59;12.10;;;5.67;;
20956;SDS011;10637;47.970;7.830;2023-03-12T02:12:05;11.73;;;5.47;;
20956;SDS011;10637;47.970;7.830;2023-03-12T02:17:08;11.20;;;5.87;;
20956;SDS011;10637;47.970;7.830;2023-03-12T02:22:10;11.10;;;6.33;;
20956;SDS011;10637;47.970;7.830;2023-03-12T02:27:14;13.97;;;6.67;;
20956;SDS011;10637;47.970;7.830;2023-03-12T02:32:22;13.50;;;6.80;;
20956;SDS011;10637;47.970;7.830;2023-03-12T02:37:27;10.60;;;5.10;;
20956;SDS011;10637;47.970;7.830;2023-03-12T02:42:28;12.17;;;6.07;;
20956;SDS011;10637;47.970;7.830;2023-03-12T02:47:30;10.10;;;5.83;;
20956;SDS011;10637;47.970;7.830;2023-03-12T02:52:33;9.57;;;4.80;;
20956;SDS011;10637;47.970;7.830;2023-03-12T02:57:37;11.30;;;4.17;;
20956;SDS011;10637;47.970;7.830;2023-03-12T03:02:39;8.47;;;3.87;;
20956;SDS011;10637;47.970;7.830;2023-03-12T03:07:41;8.63;;;4.20;;
20956;SDS011;10637;47.970;7.830;2023-03-12T03:12:43;9.53;;;4.60;;
20956;SDS011;10637;47.970;7.830;2023-03-12T03:17:45;8.70;;;4.07;;
20956;SDS011;10637;47.970;7.830;2023-03-12T03:22:47;8.60;;;4.50;;
20956;SDS011;10637;47.970;7.830;2023-03-12T03:27:48;7.93;;;3.80;;
20956;SDS011;10637;47.970;7.830;2023-03-12T03:32:50;8.17;;;4.03;;
20956;SDS011;10637;47.970;7.830;2023-03-12T03:37:52;9.07;;;4.10;;
20956;SDS011;10637;47.970;7.830;2023-03-12T03:42:54;8.50;;;4.30;;
20956;SDS011;10637;47.970;7.830;2023-03-12T03:47:56;9.23;;;5.10;;
20956;SDS011;10637;47.970;7.830;2023-03-12T03:52:57;11.30;;;5.70;;
20956;SDS011;10637;47.970;7.830;2023-03-12T03:57:59;9.97;;;5.17;;
20956;SDS011;10637;47.970;7.830;2023-03-12T04:03:01;10.10;;;5.73;;
20956;SDS011;10637;47.970;7.830;2023-03-12T04:08:03;11.40;;;6.67;;
20956;SDS011;10637;47.970;7.830;2023-03-12T04:13:04;10.27;;;5.80;;
20956;SDS011;10637;47.970;7.830;2023-03-12T04:18:06;10.03;;;5.27;;
20956;SDS011;10637;47.970;7.830;2023-03-12T04:23:08;9.77;;;4.83;;
20956;SDS011;10637;47.970;7.830;2023-03-12T04:28:10;10.47;;;5.00;;
20956;SDS011;10637;47.970;7.830;2023-03-12T04:33:12;9.67;;;5.20;;
20956;SDS011;10637;47.970;7.830;2023-03-12T04:38:14;8.70;;;4.50;;
20956;SDS011;10637;47.970;7.830;2023-03-12T04:43:16;11.37;;;5.90;;
20956;SDS011;10637;47.970;7.830;2023-03-12T04:48:20;15.17;;;8.93;;
20956;SDS011;10637;47.970;7.830;2023-03-12T04:53:22;20.53;;;13.97;;
20956;SDS011;10637;47.970;7.830;2023-03-12T04:58:24;8.20;;;4.30;;
20956;SDS011;10637;47.970;7.830;2023-03-12T05:03:26;9.07;;;4.73;;
20956;SDS011;10637;47.970;7.830;2023-03-12T05:08:28;8.60;;;4.40;;
20956;SDS011;10637;47.970;7.830;2023-03-12T05:13:30;9.43;;;4.93;;
20956;SDS011;10637;47.970;7.830;2023-03-12T05:18:32;9.60;;;5.73;;
20956;SDS011;10637;47.970;7.830;2023-03-12T05:23:34;9.70;;;5.07;;
20956;SDS011;10637;47.970;7.830;2023-03-12T05:28:36;9.17;;;4.23;;
20956;SDS011;10637;47.970;7.830;2023-03-12T05:33:38;10.53;;;4.40;;
20956;SDS011;10637;47.970;7.830;2023-03-12T05:38:40;7.97;;;3.80;;
20956;SDS011;10637;47.970;7.830;2023-03-12T05:43:42;7.93;;;3.97;;
20956;SDS011;10637;47.970;7.830;2023-03-12T05:48:44;8.30;;;4.20;;
20956;SDS011;10637;47.970;7.830;2023-03-12T05:53:46;7.60;;;3.60;;
20956;SDS011;10637;47.970;7.830;2023-03-12T05:58:48;7.70;;;3.60;;
20956;SDS011;10637;47.970;7.830;2023-03-12T06:03:50;7.30;;;3.40;;
20956;SDS011;10637;47.970;7.830;2023-03-12T06:08:51;8.40;;;3.40;;
20956;SDS011;10637;47.970;7.830;2023-03-12T06:13:54;7.87;;;4.10;;
20956;SDS011;10637;47.970;7.830;2023-03-12T06:18:58;8.93;;;4.30;;
20956;SDS011;10637;47.970;7.830;2023-03-12T06:24:01;7.70;;;3.57;;
20956;SDS011;10637;47.970;7.830;2023-03-12T06:29:03;7.00;;;3.33;;
20956;SDS011;10637;47.970;7.830;2023-03-12T06:34:05;9.40;;;4.30;;
20956;SDS011;10637;47.970;7.830;2023-03-12T06:39:07;10.77;;;3.77;;
20956;SDS011;10637;47.970;7.830;2023-03-12T06:44:09;7.37;;;3.57;;
20956;SDS011;10637;47.970;7.830;2023-03-12T06:49:11;7.33;;;3.23;;
20956;SDS011;10637;47.970;7.830;2023-03-12T06:54:14;8.30;;;3.73;;
20956;SDS011;10637;47.970;7.830;2023-03-12T06:59:16;7.03;;;3.10;;
20956;SDS011;10637;47.970;7.830;2023-03-12T07:04:18;6.50;;;2.60;;
20956;SDS011;10637;47.970;7.830;2023-03-12T07:09:20;6.70;;;2.90;;
20956;SDS011;10637;47.970;7.830;2023-03-12T07:14:22;8.90;;;3.23;;
20956;SDS011;10637;47.970;7.830;2023-03-12T07:19:23;6.73;;;3.00;;
20956;SDS011;10637;47.970;7.830;2023-03-12T07:24:25;7.80;;;3.33;;
20956;SDS011;10637;47.970;7.830;2023-03-12T07:29:27;6.33;;;2.67;;
20956;SDS011;10637;47.970;7.830;2023-03-12T07:34:28;6.97;;;3.10;;
20956;SDS011;10637;47.970;7.830;2023-03-12T07:39:30;8.57;;;3.20;;
20956;SDS011;10637;47.970;7.830;2023-03-12T07:44:32;7.83;;;3.47;;
20956;SDS011;10637;47.970;7.830;2023-03-12T07:49:36;7.80;;;2.97;;
20956;SDS011;10637;47.970;7.830;2023-03-12T07:54:41;7.33;;;2.80;;
20956;SDS011;10637;47.970;7.830;2023-03-12T07:59:44;8.20;;;3.33;;
20956;SDS011;10637;47.970;7.830;2023-03-12T08:04:47;8.17;;;3.00;;
20956;SDS011;10637;47.970;7.830;2023-03-12T08:09:49;7.73;;;3.00;;
20956;SDS011;10637;47.970;7.830;2023-03-12T08:14:51;9.00;;;2.80;;
20956;SDS011;10637;47.970;7.830;2023-03-12T08:19:53;7.90;;;2.60;;
20956;SDS011;10637;47.970;7.830;2023-03-12T08:24:54;7.63;;;3.00;;
20956;SDS011;10637;47.970;7.830;2023-03-12T08:29:56;9.87;;;3.03;;
20956;SDS011;10637;47.970;7.830;2023-03-12T08:34:58;6.80;;;2.40;;
20956;SDS011;10637;47.970;7.830;2023-03-12T08:40:00;6.10;;;2.33;;
20956;SDS011;10637;47.970;7.830;2023-03-12T08:45:02;7.73;;;2.50;;
20956;SDS011;10637;47.970;7.830;2023-03-12T08:50:04;7.07;;;2.67;;
20956;SDS011;10637;47.970;7.830;2023-03-12T08:55:06;6.83;;;2.60;;
20956;SDS011;10637;47.970;7.830;2023-03-12T09:00:08;7.33;;;2.50;;
20956;SDS011;10637;47.970;7.830;2023-03-12T09:05:15;5.63;;;2.20;;
20956;SDS011;10637;47.970;7.830;2023-03-12T09:10:16;10.23;;;2.30;;
20956;SDS011;10637;47.970;7.830;2023-03-12T09:15:18;7.80;;;3.07;;
20956;SDS011;10637;47.970;7.830;2023-03-12T09:20:20;10.20;;;4.70;;
20956;SDS011;10637;47.970;7.830;2023-03-12T09:25:22;8.60;;;4.27;;
20956;SDS011;10637;47.970;7.830;2023-03-12T09:30:24;7.00;;;3.03;;
20956;SDS011;10637;47.970;7.830;2023-03-12T09:35:27;8.20;;;2.50;;
20956;SDS011;10637;47.970;7.830;2023-03-12T09:40:30;8.23;;;2.40;;
20956;SDS011;10637;47.970;7.830;2023-03-12T09:45:37;6.93;;;2.43;;
20956;SDS011;10637;47.970;7.830;2023-03-12T09:50:45;6.47;;;2.20;;
20956;SDS011;10637;47.970;7.830;2023-03-12T09:55:50;7.63;;;2.60;;
20956;SDS011;10637;47.970;7.830;2023-03-12T10:06:28;8.20;;;2.23;;
20956;SDS011;10637;47.970;7.830;2023-03-12T10:11:58;6.67;;;2.30;;
20956;SDS011;10637;47.970;7.830;2023-03-12T10:28:13;7.67;;;3.30;;
20956;SDS011;10637;47.970;7.830;2023-03-12T10:33:17;6.83;;;2.70;;
20956;SDS011;10637;47.970;7.830;2023-03-12T10:38:23;6.50;;;2.60;;
20956;SDS011;10637;47.970;7.830;2023-03-12T10:43:29;8.20;;;2.53;;
20956;SDS011;10637;47.970;7.830;2023-03-12T10:48:31;8.07;;;3.43;;
20956;SDS011;10637;47.970;7.830;2023-03-12T10:53:34;9.23;;;3.97;;
20956;SDS011;10637;47.970;7.830;2023-03-12T10:58:50;9.03;;;3.70;;
20956;SDS011;10637;47.970;7.830;2023-03-12T11:04:07;6.90;;;2.57;;
20956;SDS011;10637;47.970;7.830;2023-03-12T11:09:18;7.73;;;2.93;;
20956;SDS011;10637;47.970;7.830;2023-03-12T11:14:21;10.57;;;4.80;;
20956;SDS011;10637;47.970;7.830;2023-03-12T11:19:30;7.37;;;2.50;;
20956;SDS011;10637;47.970;7.830;2023-03-12T11:24:34;8.13;;;2.40;;
20956;SDS011;10637;47.970;7.830;2023-03-12T11:29:42;9.30;;;2.50;;
20956;SDS011;10637;47.970;7.830;2023-03-12T11:34:47;8.03;;;2.60;;
20956;SDS011;10637;47.970;7.830;2023-03-12T12:01:42;11.83;;;2.97;;
20956;SDS011;10637;47.970;7.830;2023-03-12T12:12:33;12.13;;;2.80;;
20956;SDS011;10637;47.970;7.830;2023-03-12T12:17:45;10.87;;;2.73;;
20956;SDS011;10637;47.970;7.830;2023-03-12T12:33:52;14.87;;;2.60;;
20956;SDS011;10637;47.970;7.830;2023-03-12T12:39:19;8.77;;;2.80;;
20956;SDS011;10637;47.970;7.830;2023-03-12T12:44:31;7.30;;;2.30;;
20956;SDS011;10637;47.970;7.830;2023-03-12T12:54:57;8.20;;;2.63;;
20956;SDS011;10637;47.970;7.830;2023-03-12T13:00:52;10.37;;;2.53;;
20956;SDS011;10637;47.970;7.830;2023-03-12T13:10:52;11.27;;;2.80;;
20956;SDS011;10637;47.970;7.830;2023-03-12T13:16:32;10.53;;;2.67;;
20956;SDS011;10637;47.970;7.830;2023-03-12T13:21:37;10.93;;;3.30;;
20956;SDS011;10637;47.970;7.830;2023-03-12T13:32:36;12.27;;;3.10;;
20956;SDS011;10637;47.970;7.830;2023-03-12T13:38:00;12.03;;;2.83;;
20956;SDS011;10637;47.970;7.830;2023-03-12T13:43:09;10.17;;;2.87;;
20956;SDS011;10637;47.970;7.830;2023-03-12T13:48:15;12.03;;;3.23;;
20956;SDS011;10637;47.970;7.830;2023-03-12T13:53:23;10.23;;;2.97;;
20956;SDS011;10637;47.970;7.830;2023-03-12T13:58:28;10.00;;;2.93;;
20956;SDS011;10637;47.970;7.830;2023-03-12T14:14:05;12.60;;;3.10;;
20956;SDS011;10637;47.970;7.830;2023-03-12T14:19:11;12.20;;;3.13;;
20956;SDS011;10637;47.970;7.830;2023-03-12T14:24:22;10.80;;;3.33;;
20956;SDS011;10637;47.970;7.830;2023-03-12T14:29:42;13.30;;;3.10;;
20956;SDS011;10637;47.970;7.830;2023-03-12T14:34:50;11.33;;;3.50;;
20956;SDS011;10637;47.970;7.830;2023-03-12T14:40:01;9.20;;;2.60;;
20956;SDS011;10637;47.970;7.830;2023-03-12T14:45:13;15.53;;;3.30;;
20956;SDS011;10637;47.970;7.830;2023-03-12T14:50:26;10.73;;;2.70;;
20956;SDS011;10637;47.970;7.830;2023-03-12T14:55:38;14.37;;;2.97;;
20956;SDS011;10637;47.970;7.830;2023-03-12T15:00:39;13.70;;;3.30;;
20956;SDS011;10637;47.970;7.830;2023-03-12T15:05:44;11.57;;;2.83;;
20956;SDS011;10637;47.970;7.830;2023-03-12T15:10:52;10.80;;;2.97;;
20956;SDS011;10637;47.970;7.830;2023-03-12T15:15:56;12.23;;;2.80;;
20956;SDS011;10637;47.970;7.830;2023-03-12T15:21:00;12.90;;;3.40;;
20956;SDS011;10637;47.970;7.830;2023-03-12T15:26:10;14.67;;;3.30;;
20956;SDS011;10637;47.970;7.830;2023-03-12T15:31:26;16.47;;;3.57;;
20956;SDS011;10637;47.970;7.830;2023-03-12T15:36:46;13.00;;;3.20;;
20956;SDS011;10637;47.970;7.830;2023-03-12T15:41:49;14.70;;;3.30;;
20956;SDS011;10637;47.970;7.830;2023-03-12T15:46:53;14.30;;;3.20;;
20956;SDS011;10637;47.970;7.830;2023-03-12T15:57:22;13.43;;;2.87;;
20956;SDS011;10637;47.970;7.830;2023-03-12T16:03:26;11.87;;;3.23;;
20956;SDS011;10637;47.970;7.830;2023-03-12T16:08:02;16.27;;;3.70;;
20956;SDS011;10637;47.970;7.830;2023-03-12T16:13:15;14.60;;;3.80;;
20956;SDS011;10637;47.970;7.830;2023-03-12T16:18:19;17.20;;;3.50;;
20956;SDS011;10637;47.970;7.830;2023-03-12T16:23:22;16.43;;;3.40;;
20956;SDS011;10637;47.970;7.830;2023-03-12T16:28:24;17.67;;;3.90;;
20956;SDS011;10637;47.970;7.830;2023-03-12T16:33:26;16.40;;;3.50;;
20956;SDS011;10637;47.970;7.830;2023-03-12T16:38:28;17.10;;;4.17;;
20956;SDS011;10637;47.970;7.830;2023-03-12T16:43:29;21.37;;;4.57;;
20956;SDS011;10637;47.970;7.830;2023-03-12T16:48:35;23.27;;;4.53;;
20956;SDS011;10637;47.970;7.830;2023-03-12T16:53:37;19.17;;;4.00;;
20956;SDS011;10637;47.970;7.830;2023-03-12T16:58:39;11.33;;;3.27;;
20956;SDS011;10637;47.970;7.830;2023-03-12T17:03:43;17.50;;;3.87;;
20956;SDS011;10637;47.970;7.830;2023-03-12T17:08:49;16.27;;;3.83;;
20956;SDS011;10637;47.970;7.830;2023-03-12T17:13:59;15.37;;;3.73;;
20956;SDS011;10637;47.970;7.830;2023-03-12T17:19:03;13.00;;;4.20;;
20956;SDS011;10637;47.970;7.830;2023-03-12T17:24:05;13.57;;;3.83;;
20956;SDS011;10637;47.970;7.830;2023-03-12T17:29:07;19.37;;;4.57;;
20956;SDS011;10637;47.970;7.830;2023-03-12T17:34:09;16.13;;;4.17;;
20956;SDS011;10637;47.970;7.830;2023-03-12T17:39:11;17.13;;;3.97;;
20956;SDS011;10637;47.970;7.830;2023-03-12T17:44:12;18.77;;;4.20;;
20956;SDS011;10637;47.970;7.830;2023-03-12T17:49:16;19.20;;;4.63;;
20956;SDS011;10637;47.970;7.830;2023-03-12T17:54:17;19.10;;;4.63;;
20956;SDS011;10637;47.970;7.830;2023-03-12T17:59:19;18.13;;;4.33;;
20956;SDS011;10637;47.970;7.830;2023-03-12T18:04:21;20.10;;;5.27;;
20956;SDS011;10637;47.970;7.830;2023-03-12T18:09:23;16.60;;;4.33;;
20956;SDS011;10637;47.970;7.830;2023-03-12T18:14:25;18.87;;;3.93;;
20956;SDS011;10637;47.970;7.830;2023-03-12T18:19:27;21.07;;;4.30;;
20956;SDS011;10637;47.970;7.830;2023-03-12T18:24:29;18.70;;;4.90;;
20956;SDS011;10637;47.970;7.830;2023-03-12T18:29:31;39.23;;;16.40;;
20956;SDS011;10637;47.970;7.830;2023-03-12T18:34:34;19.07;;;6.33;;
20956;SDS011;10637;47.970;7.830;2023-03-12T18:39:37;15.17;;;5.70;;
20956;SDS011;10637;47.970;7.830;2023-03-12T18:44:39;20.87;;;5.67;;
20956;SDS011;10637;47.970;7.830;2023-03-12T18:49:41;21.23;;;5.43;;
20956;SDS011;10637;47.970;7.830;2023-03-12T18:54:42;20.07;;;4.27;;
20956;SDS011;10637;47.970;7.830;2023-03-12T18:59:44;16.67;;;4.60;;
20956;SDS011;10637;47.970;7.830;2023-03-12T19:04:47;19.90;;;5.20;;
20956;SDS011;10637;47.970;7.830;2023-03-12T19:09:49;21.90;;;5.70;;
20956;SDS011;10637;47.970;7.830;2023-03-12T19:14:51;18.60;;;5.37;;
20956;SDS011;10637;47.970;7.830;2023-03-12T19:19:53;19.77;;;4.77;;
20956;SDS011;10637;47.970;7.830;2023-03-12T19:24:55;20.73;;;5.33;;
20956;SDS011;10637;47.970;7.830;2023-03-12T19:29:57;19.70;;;5.80;;
20956;SDS011;10637;47.970;7.830;2023-03-12T19:34:59;16.13;;;4.60;;
20956;SDS011;10637;47.970;7.830;2023-03-12T19:40:01;18.67;;;4.47;;
20956;SDS011;10637;47.970;7.830;2023-03-12T19:45:06;19.60;;;4.60;;
20956;SDS011;10637;47.970;7.830;2023-03-12T19:50:09;22.07;;;4.77;;
20956;SDS011;10637;47.970;7.830;2023-03-12T19:55:12;20.43;;;4.20;;
20956;SDS011;10637;47.970;7.830;2023-03-12T20:00:14;19.87;;;5.13;;
20956;SDS011;10637;47.970;7.830;2023-03-12T20:05:16;17.50;;;4.50;;
20956;SDS011;10637;47.970;7.830;2023-03-12T20:10:18;20.47;;;4.00;;
20956;SDS011;10637;47.970;7.830;2023-03-12T20:15:20;18.70;;;4.13;;
20956;SDS011;10637;47.970;7.830;2023-03-12T20:20:22;16.53;;;3.70;;
20956;SDS011;10637;47.970;7.830;2023-03-12T20:25:24;19.23;;;4.33;;
20956;SDS011;10637;47.970;7.830;2023-03-12T20:30:26;19.50;;;4.13;;
20956;SDS011;10637;47.970;7.830;2023-03-12T20:35:27;19.40;;;4.13;;
20956;SDS011;10637;47.970;7.830;2023-03-12T20:40:29;14.67;;;3.73;;
20956;SDS011;10637;47.970;7.830;2023-03-12T20:45:32;12.47;;;3.23;;
20956;SDS011;10637;47.970;7.830;2023-03-12T20:50:36;19.50;;;3.63;;
20956;SDS011;10637;47.970;7.830;2023-03-12T20:55:39;14.77;;;3.30;;
20956;SDS011;10637;47.970;7.830;2023-03-12T21:00:41;14.83;;;3.20;;
20956;SDS011;10637;47.970;7.830;2023-03-12T21:05:51;13.47;;;3.50;;
20956;SDS011;10637;47.970;7.830;2023-03-12T21:10:57;16.10;;;3.60;;
20956;SDS011;10637;47.970;7.830;2023-03-12T21:15:58;14.43;;;3.40;;
20956;SDS011;10637;47.970;7.830;2023-03-12T21:21:01;16.60;;;3.37;;
20956;SDS011;10637;47.970;7.830;2023-03-12T21:26:04;14.03;;;3.00;;
20956;SDS011;10637;47.970;7.830;2023-03-12T21:31:11;15.07;;;3.30;;
20956;SDS011;10637;47.970;7.830;2023-03-12T21:36:13;15.00;;;3.57;;
20956;SDS011;10637;47.970;7.830;2023-03-12T21:41:16;9.30;;;2.80;;
20956;SDS011;10637;47.970;7.830;2023-03-12T21:46:19;12.23;;;3.03;;
20956;SDS011;10637;47.970;7.830;2023-03-12T21:51:25;12.07;;;3.03;;
20956;SDS011;10637;47.970;7.830;2023-03-12T21:56:27;12.53;;;3.13;;
20956;SDS011;10637;47.970;7.830;2023-03-12T22:01:30;10.47;;;2.73;;
20956;SDS011;10637;47.970;7.830;2023-03-12T22:06:32;10.73;;;2.90;;
20956;SDS011;10637;47.970;7.830;2023-03-12T22:11:33;11.90;;;3.37;;
20956;SDS011;10637;47.970;7.830;2023-03-12T22:16:35;12.13;;;3.03;;
20956;SDS011;10637;47.970;7.830;2023-03-12T22:21:37;11.57;;;2.90;;
20956;SDS011;10637;47.970;7.830;2023-03-12T22:26:39;13.63;;;3.73;;
20956;SDS011;10637;47.970;7.830;2023-03-12T22:31:40;13.30;;;2.80;;
20956;SDS011;10637;47.970;7.830;2023-03-12T22:36:42;10.87;;;2.97;;
20956;SDS011;10637;47.970;7.830;2023-03-12T22:41:46;14.83;;;3.03;;
20956;SDS011;10637;47.970;7.830;2023-03-12T22:46:50;12.50;;;2.90;;
20956;SDS011;10637;47.970;7.830;2023-03-12T22:51:52;11.10;;;2.80;;
20956;SDS011;10637;47.970;7.830;2023-03-12T22:56:54;9.37;;;2.73;;
20956;SDS011;10637;47.970;7.830;2023-03-12T23:01:55;10.30;;;2.70;;
20956;SDS011;10637;47.970;7.830;2023-03-12T23:06:57;9.20;;;2.60;;
20956;SDS011;10637;47.970;7.830;2023-03-12T23:12:14;8.20;;;2.70;;
20956;SDS011;10637;47.970;7.830;2023-03-12T23:17:16;6.83;;;2.40;;
20956;SDS011;10637;47.970;7.830;2023-03-12T23:22:18;9.80;;;2.80;;
20956;SDS011;10637;47.970;7.830;2023-03-12T23:27:19;8.53;;;2.43;;
20956;SDS011;10637;47.970;7.830;2023-03-12T23:32:21;11.17;;;2.90;;
20956;SDS011;10637;47.970;7.830;2023-03-12T23:37:23;8.90;;;2.60;;
20956;SDS011;10637;47.970;7.830;2023-03-12T23:42:26;11.50;;;2.47;;
20956;SDS011;10637;47.970;7.830;2023-03-12T23:47:28;9.23;;;2.63;;
20956;SDS011;10637;47.970;7.830;2023-03-12T23:52:29;10.63;;;2.67;;
20956;SDS011;10637;47.970;7.830;2023-03-12T23:57:31;8.60;;;2.27;;
